sensor_id;sensor_type;location;lat;lon;timestamp;P1;durP1;ratioP1;P2;durP2;ratioP2
43682;SDS011;29285;52.128;21.060;2023-04-25T00:04:48;10.40;;;9.20;;
43682;SDS011;29285;52.128;21.060;2023-04-25T00:09:49;10.20;;;8.90;;
43682;SDS011;29285;52.128;21.060;2023-04-25T00:14:51;10.90;;;8.90;;
43682;SDS011;29285;52.128;21.060;2023-04-25T00:19:53;10.50;;;9.50;;
43682;SDS011;29285;52.128;21.060;2023-04-25T00:24:54;14.90;;;10.20;;
43682;SDS011;29285;52.128;21.060;2023-04-25T00:30:00;10.00;;;9.00;;
43682;SDS011;29285;52.128;21.060;2023-04-25T00:35:05;10.60;;;9.50;;
43682;SDS011;29285;52.128;21.060;2023-04-25T00:40:06;10.50;;;9.30;;
43682;SDS011;29285;52.128;21.060;2023-04-25T00:45:08;10.20;;;9.20;;
43682;SDS011;29285;52.128;21.060;2023-04-25T00:50:13;10.90;;;9.90;;
43682;SDS011;29285;52.128;21.060;2023-04-25T00:55:17;10.40;;;9.10;;
43682;SDS011;29285;52.128;21.060;2023-04-25T01:00:20;11.90;;;8.90;;
43682;SDS011;29285;52.128;21.060;2023-04-25T01:05:21;10.20;;;9.20;;
43682;SDS011;29285;52.128;21.060;2023-04-25T01:10:22;12.70;;;10.50;;
43682;SDS011;29285;52.128;21.060;2023-04-25T01:15:23;14.00;;;10.70;;
43682;SDS011;29285;52.128;21.060;2023-04-25T01:20:24;13.10;;;10.20;;
43682;SDS011;29285;52.128;21.060;2023-04-25T01:25:27;11.60;;;10.40;;
43682;SDS011;29285;52.128;21.060;2023-04-25T01:30:29;10.70;;;9.30;;
43682;SDS011;29285;52.128;21.060;2023-04-25T01:35:30;13.70;;;9.30;;
43682;SDS011;29285;52.128;21.060;2023-04-25T01:40:32;10.40;;;9.10;;
43682;SDS011;29285;52.128;21.060;2023-04-25T01:45:35;11.90;;;9.50;;
43682;SDS011;29285;52.128;21.060;2023-04-25T01:50:37;9.70;;;8.70;;
43682;SDS011;29285;52.128;21.060;2023-04-25T01:55:39;11.50;;;10.30;;
43682;SDS011;29285;52.128;21.060;2023-04-25T02:00:40;12.80;;;10.00;;
43682;SDS011;29285;52.128;21.060;2023-04-25T02:05:41;11.00;;;9.90;;
43682;SDS011;29285;52.128;21.060;2023-04-25T02:10:43;11.00;;;9.10;;
43682;SDS011;29285;52.128;21.060;2023-04-25T02:15:44;12.20;;;8.60;;
43682;SDS011;29285;52.128;21.060;2023-04-25T02:20:45;10.30;;;8.70;;
43682;SDS011;29285;52.128;21.060;2023-04-25T02:25:46;10.90;;;9.50;;
43682;SDS011;29285;52.128;21.060;2023-04-25T02:30:47;8.40;;;7.60;;
43682;SDS011;29285;52.128;21.060;2023-04-25T02:35:48;10.20;;;8.00;;
43682;SDS011;29285;52.128;21.060;2023-04-25T02:40:50;9.70;;;8.20;;
43682;SDS011;29285;52.128;21.060;2023-04-25T02:45:51;8.40;;;6.40;;
43682;SDS011;29285;52.128;21.060;2023-04-25T02:50:52;9.20;;;6.00;;
43682;SDS011;29285;52.128;21.060;2023-04-25T02:55:53;8.60;;;6.30;;
43682;SDS011;29285;52.128;21.060;2023-04-25T03:00:55;6.80;;;6.10;;
43682;SDS011;29285;52.128;21.060;2023-04-25T03:05:56;7.50;;;6.40;;
43682;SDS011;29285;52.128;21.060;2023-04-25T03:10:57;8.40;;;6.30;;
43682;SDS011;29285;52.128;21.060;2023-04-25T03:15:58;8.40;;;7.00;;
43682;SDS011;29285;52.128;21.060;2023-04-25T03:20:59;9.30;;;6.10;;
43682;SDS011;29285;52.128;21.060;2023-04-25T03:26:01;7.50;;;5.90;;
43682;SDS011;29285;52.128;21.060;2023-04-25T03:31:02;8.30;;;5.80;;
43682;SDS011;29285;52.128;21.060;2023-04-25T03:36:03;7.30;;;5.40;;
43682;SDS011;29285;52.128;21.060;2023-04-25T03:41:04;7.10;;;5.60;;
43682;SDS011;29285;52.128;21.060;2023-04-25T03:46:05;7.30;;;5.60;;
43682;SDS011;29285;52.128;21.060;2023-04-25T03:51:07;6.70;;;5.40;;
43682;SDS011;29285;52.128;21.060;2023-04-25T03:56:08;5.90;;;5.30;;
43682;SDS011;29285;52.128;21.060;2023-04-25T04:01:10;6.40;;;5.00;;
43682;SDS011;29285;52.128;21.060;2023-04-25T04:06:11;4.90;;;4.30;;
43682;SDS011;29285;52.128;21.060;2023-04-25T04:11:13;5.00;;;4.10;;
43682;SDS011;29285;52.128;21.060;2023-04-25T04:16:14;5.40;;;4.90;;
43682;SDS011;29285;52.128;21.060;2023-04-25T04:21:16;4.80;;;4.30;;
43682;SDS011;29285;52.128;21.060;2023-04-25T04:26:17;5.40;;;4.40;;
43682;SDS011;29285;52.128;21.060;2023-04-25T04:31:18;7.70;;;4.90;;
43682;SDS011;29285;52.128;21.060;2023-04-25T04:36:20;5.20;;;4.70;;
43682;SDS011;29285;52.128;21.060;2023-04-25T04:41:23;6.10;;;4.70;;
43682;SDS011;29285;52.128;21.060;2023-04-25T04:46:25;5.40;;;4.60;;
43682;SDS011;29285;52.128;21.060;2023-04-25T05:15:37;6.40;;;5.80;;
43682;SDS011;29285;52.128;21.060;2023-04-25T05:20:38;6.10;;;5.50;;
43682;SDS011;29285;52.128;21.060;2023-04-25T05:25:39;6.30;;;5.40;;
43682;SDS011;29285;52.128;21.060;2023-04-25T05:30:40;9.10;;;6.80;;
43682;SDS011;29285;52.128;21.060;2023-04-25T05:35:41;7.40;;;5.60;;
43682;SDS011;29285;52.128;21.060;2023-04-25T05:40:42;6.00;;;5.30;;
43682;SDS011;29285;52.128;21.060;2023-04-25T05:45:44;5.70;;;4.70;;
43682;SDS011;29285;52.128;21.060;2023-04-25T05:50:45;7.50;;;5.30;;
43682;SDS011;29285;52.128;21.060;2023-04-25T05:55:46;7.20;;;4.70;;
43682;SDS011;29285;52.128;21.060;2023-04-25T06:00:47;6.60;;;5.70;;
43682;SDS011;29285;52.128;21.060;2023-04-25T06:05:49;4.50;;;4.10;;
43682;SDS011;29285;52.128;21.060;2023-04-25T06:10:50;6.30;;;5.70;;
43682;SDS011;29285;52.128;21.060;2023-04-25T06:15:58;6.80;;;5.50;;
43682;SDS011;29285;52.128;21.060;2023-04-25T06:21:04;8.90;;;6.00;;
43682;SDS011;29285;52.128;21.060;2023-04-25T06:26:06;8.50;;;6.30;;
43682;SDS011;29285;52.128;21.060;2023-04-25T06:31:07;6.70;;;6.00;;
43682;SDS011;29285;52.128;21.060;2023-04-25T06:36:08;7.20;;;6.50;;
43682;SDS011;29285;52.128;21.060;2023-04-25T06:41:09;10.80;;;6.90;;
43682;SDS011;29285;52.128;21.060;2023-04-25T06:46:10;5.90;;;5.40;;
43682;SDS011;29285;52.128;21.060;2023-04-25T06:51:11;5.50;;;5.00;;
43682;SDS011;29285;52.128;21.060;2023-04-25T06:56:13;5.50;;;5.00;;
43682;SDS011;29285;52.128;21.060;2023-04-25T07:01:15;5.10;;;4.60;;
43682;SDS011;29285;52.128;21.060;2023-04-25T07:06:16;5.60;;;4.80;;
43682;SDS011;29285;52.128;21.060;2023-04-25T07:11:17;5.80;;;5.20;;
43682;SDS011;29285;52.128;21.060;2023-04-25T07:16:22;6.30;;;5.20;;
43682;SDS011;29285;52.128;21.060;2023-04-25T07:21:23;5.80;;;5.10;;
43682;SDS011;29285;52.128;21.060;2023-04-25T07:26:25;8.80;;;6.20;;
43682;SDS011;29285;52.128;21.060;2023-04-25T07:31:27;4.80;;;4.20;;
43682;SDS011;29285;52.128;21.060;2023-04-25T07:36:28;4.40;;;4.00;;
43682;SDS011;29285;52.128;21.060;2023-04-25T07:41:31;5.10;;;4.50;;
43682;SDS011;29285;52.128;21.060;2023-04-25T07:46:33;6.00;;;4.70;;
43682;SDS011;29285;52.128;21.060;2023-04-25T07:51:35;5.20;;;4.00;;
43682;SDS011;29285;52.128;21.060;2023-04-25T07:56:36;4.60;;;4.10;;
43682;SDS011;29285;52.128;21.060;2023-04-25T08:01:37;5.90;;;4.70;;
43682;SDS011;29285;52.128;21.060;2023-04-25T08:06:38;5.10;;;4.60;;
43682;SDS011;29285;52.128;21.060;2023-04-25T08:11:41;6.90;;;5.80;;
43682;SDS011;29285;52.128;21.060;2023-04-25T08:16:42;5.40;;;4.90;;
43682;SDS011;29285;52.128;21.060;2023-04-25T08:21:44;4.20;;;3.80;;
43682;SDS011;29285;52.128;21.060;2023-04-25T08:26:45;4.90;;;3.70;;
43682;SDS011;29285;52.128;21.060;2023-04-25T08:31:46;3.80;;;3.50;;
43682;SDS011;29285;52.128;21.060;2023-04-25T08:36:47;4.10;;;3.00;;
43682;SDS011;29285;52.128;21.060;2023-04-25T08:41:48;3.50;;;3.10;;
43682;SDS011;29285;52.128;21.060;2023-04-25T08:46:50;3.50;;;3.20;;
43682;SDS011;29285;52.128;21.060;2023-04-25T08:51:52;4.10;;;3.70;;
43682;SDS011;29285;52.128;21.060;2023-04-25T08:57:01;4.30;;;3.80;;
43682;SDS011;29285;52.128;21.060;2023-04-25T09:02:04;4.50;;;4.00;;
43682;SDS011;29285;52.128;21.060;2023-04-25T09:07:05;4.10;;;3.70;;
43682;SDS011;29285;52.128;21.060;2023-04-25T09:12:06;4.80;;;3.90;;
43682;SDS011;29285;52.128;21.060;2023-04-25T09:17:08;4.80;;;4.30;;
43682;SDS011;29285;52.128;21.060;2023-04-25T09:22:09;5.70;;;4.30;;
43682;SDS011;29285;52.128;21.060;2023-04-25T09:27:11;5.30;;;3.70;;
43682;SDS011;29285;52.128;21.060;2023-04-25T09:42:24;4.10;;;3.50;;
43682;SDS011;29285;52.128;21.060;2023-04-25T09:47:27;4.30;;;3.90;;
43682;SDS011;29285;52.128;21.060;2023-04-25T09:52:29;3.80;;;3.40;;
43682;SDS011;29285;52.128;21.060;2023-04-25T09:57:30;5.10;;;4.00;;
43682;SDS011;29285;52.128;21.060;2023-04-25T10:02:32;5.90;;;3.70;;
43682;SDS011;29285;52.128;21.060;2023-04-25T10:07:35;5.00;;;4.00;;
43682;SDS011;29285;52.128;21.060;2023-04-25T10:12:38;5.70;;;4.30;;
43682;SDS011;29285;52.128;21.060;2023-04-25T10:17:40;4.70;;;4.20;;
43682;SDS011;29285;52.128;21.060;2023-04-25T10:22:44;4.70;;;3.90;;
43682;SDS011;29285;52.128;21.060;2023-04-25T10:27:46;5.30;;;4.80;;
43682;SDS011;29285;52.128;21.060;2023-04-25T10:32:47;5.20;;;4.80;;
43682;SDS011;29285;52.128;21.060;2023-04-25T10:48:25;6.70;;;4.70;;
43682;SDS011;29285;52.128;21.060;2023-04-25T10:53:30;5.80;;;4.70;;
43682;SDS011;29285;52.128;21.060;2023-04-25T10:58:33;5.80;;;4.90;;
43682;SDS011;29285;52.128;21.060;2023-04-25T11:03:41;5.20;;;4.70;;
43682;SDS011;29285;52.128;21.060;2023-04-25T11:08:49;6.90;;;4.60;;
43682;SDS011;29285;52.128;21.060;2023-04-25T11:13:51;5.10;;;4.60;;
43682;SDS011;29285;52.128;21.060;2023-04-25T11:18:52;5.90;;;4.20;;
43682;SDS011;29285;52.128;21.060;2023-04-25T11:23:53;4.70;;;4.30;;
43682;SDS011;29285;52.128;21.060;2023-04-25T11:28:57;4.50;;;4.10;;
43682;SDS011;29285;52.128;21.060;2023-04-25T11:34:03;4.30;;;4.00;;
43682;SDS011;29285;52.128;21.060;2023-04-25T11:39:04;5.00;;;4.60;;
43682;SDS011;29285;52.128;21.060;2023-04-25T11:44:06;4.90;;;4.20;;
43682;SDS011;29285;52.128;21.060;2023-04-25T11:49:08;5.50;;;4.40;;
43682;SDS011;29285;52.128;21.060;2023-04-25T11:54:09;4.90;;;4.50;;
43682;SDS011;29285;52.128;21.060;2023-04-25T11:59:11;4.30;;;4.00;;
43682;SDS011;29285;52.128;21.060;2023-04-25T12:04:15;4.40;;;4.00;;
43682;SDS011;29285;52.128;21.060;2023-04-25T12:09:20;4.10;;;3.80;;
43682;SDS011;29285;52.128;21.060;2023-04-25T12:14:31;4.60;;;4.10;;
43682;SDS011;29285;52.128;21.060;2023-04-25T12:19:34;5.90;;;4.60;;
43682;SDS011;29285;52.128;21.060;2023-04-25T12:24:37;6.60;;;4.20;;
43682;SDS011;29285;52.128;21.060;2023-04-25T12:29:38;5.20;;;3.80;;
43682;SDS011;29285;52.128;21.060;2023-04-25T12:34:39;3.70;;;2.90;;
43682;SDS011;29285;52.128;21.060;2023-04-25T12:39:40;2.70;;;2.50;;
43682;SDS011;29285;52.128;21.060;2023-04-25T12:44:42;3.10;;;2.90;;
43682;SDS011;29285;52.128;21.060;2023-04-25T12:49:43;3.20;;;2.90;;
43682;SDS011;29285;52.128;21.060;2023-04-25T12:54:44;3.40;;;3.10;;
43682;SDS011;29285;52.128;21.060;2023-04-25T12:59:45;3.50;;;3.00;;
43682;SDS011;29285;52.128;21.060;2023-04-25T13:04:46;4.10;;;3.00;;
43682;SDS011;29285;52.128;21.060;2023-04-25T13:09:47;3.00;;;2.80;;
43682;SDS011;29285;52.128;21.060;2023-04-25T13:14:48;4.10;;;3.70;;
43682;SDS011;29285;52.128;21.060;2023-04-25T13:19:50;6.10;;;4.30;;
43682;SDS011;29285;52.128;21.060;2023-04-25T13:24:51;5.50;;;4.10;;
43682;SDS011;29285;52.128;21.060;2023-04-25T13:29:52;3.70;;;3.40;;
43682;SDS011;29285;52.128;21.060;2023-04-25T13:34:54;4.20;;;3.40;;
43682;SDS011;29285;52.128;21.060;2023-04-25T13:39:55;7.30;;;3.30;;
43682;SDS011;29285;52.128;21.060;2023-04-25T13:44:57;4.30;;;3.90;;
43682;SDS011;29285;52.128;21.060;2023-04-25T13:49:58;4.10;;;3.20;;
43682;SDS011;29285;52.128;21.060;2023-04-25T13:54:59;3.40;;;3.10;;
43682;SDS011;29285;52.128;21.060;2023-04-25T14:00:01;4.00;;;3.60;;
43682;SDS011;29285;52.128;21.060;2023-04-25T14:05:09;4.40;;;3.90;;
43682;SDS011;29285;52.128;21.060;2023-04-25T14:10:10;4.60;;;4.20;;
43682;SDS011;29285;52.128;21.060;2023-04-25T14:15:11;4.80;;;4.40;;
43682;SDS011;29285;52.128;21.060;2023-04-25T14:20:13;4.40;;;4.00;;
43682;SDS011;29285;52.128;21.060;2023-04-25T14:25:14;4.90;;;4.10;;
43682;SDS011;29285;52.128;21.060;2023-04-25T14:30:19;5.00;;;4.40;;
43682;SDS011;29285;52.128;21.060;2023-04-25T14:35:21;4.50;;;4.10;;
43682;SDS011;29285;52.128;21.060;2023-04-25T14:40:22;5.20;;;4.20;;
43682;SDS011;29285;52.128;21.060;2023-04-25T14:45:23;6.10;;;4.10;;
43682;SDS011;29285;52.128;21.060;2023-04-25T14:50:25;4.50;;;4.20;;
43682;SDS011;29285;52.128;21.060;2023-04-25T14:55:29;4.70;;;3.90;;
43682;SDS011;29285;52.128;21.060;2023-04-25T15:00:30;5.00;;;4.40;;
43682;SDS011;29285;52.128;21.060;2023-04-25T15:05:32;4.40;;;4.00;;
43682;SDS011;29285;52.128;21.060;2023-04-25T15:10:34;5.10;;;4.20;;
43682;SDS011;29285;52.128;21.060;2023-04-25T15:15:35;3.80;;;3.40;;
43682;SDS011;29285;52.128;21.060;2023-04-25T15:20:36;4.70;;;4.30;;
43682;SDS011;29285;52.128;21.060;2023-04-25T15:25:38;5.90;;;4.90;;
43682;SDS011;29285;52.128;21.060;2023-04-25T15:30:39;5.00;;;4.50;;
43682;SDS011;29285;52.128;21.060;2023-04-25T15:35:40;4.90;;;4.40;;
43682;SDS011;29285;52.128;21.060;2023-04-25T15:40:41;6.20;;;4.70;;
43682;SDS011;29285;52.128;21.060;2023-04-25T15:45:42;6.10;;;5.40;;
43682;SDS011;29285;52.128;21.060;2023-04-25T15:50:45;8.80;;;6.30;;
43682;SDS011;29285;52.128;21.060;2023-04-25T15:55:47;5.90;;;5.30;;
43682;SDS011;29285;52.128;21.060;2023-04-25T16:00:48;4.40;;;3.80;;
43682;SDS011;29285;52.128;21.060;2023-04-25T16:05:51;5.50;;;4.80;;
43682;SDS011;29285;52.128;21.060;2023-04-25T16:10:53;6.10;;;5.40;;
43682;SDS011;29285;52.128;21.060;2023-04-25T16:15:55;6.40;;;5.50;;
43682;SDS011;29285;52.128;21.060;2023-04-25T16:20:57;5.50;;;4.60;;
43682;SDS011;29285;52.128;21.060;2023-04-25T16:25:59;5.40;;;4.50;;
43682;SDS011;29285;52.128;21.060;2023-04-25T16:31:00;5.90;;;4.80;;
43682;SDS011;29285;52.128;21.060;2023-04-25T16:36:01;4.90;;;4.40;;
43682;SDS011;29285;52.128;21.060;2023-04-25T16:41:03;5.00;;;4.10;;
43682;SDS011;29285;52.128;21.060;2023-04-25T16:46:05;5.90;;;5.00;;
43682;SDS011;29285;52.128;21.060;2023-04-25T16:51:06;6.00;;;4.70;;
43682;SDS011;29285;52.128;21.060;2023-04-25T16:56:08;4.60;;;4.20;;
43682;SDS011;29285;52.128;21.060;2023-04-25T17:01:18;5.60;;;4.70;;
43682;SDS011;29285;52.128;21.060;2023-04-25T17:06:20;5.40;;;4.90;;
43682;SDS011;29285;52.128;21.060;2023-04-25T17:11:22;4.90;;;4.40;;
43682;SDS011;29285;52.128;21.060;2023-04-25T17:16:24;5.00;;;4.40;;
43682;SDS011;29285;52.128;21.060;2023-04-25T17:21:37;6.10;;;3.80;;
43682;SDS011;29285;52.128;21.060;2023-04-25T17:26:38;6.20;;;4.40;;
43682;SDS011;29285;52.128;21.060;2023-04-25T17:31:39;6.50;;;5.00;;
43682;SDS011;29285;52.128;21.060;2023-04-25T17:36:40;5.20;;;4.50;;
43682;SDS011;29285;52.128;21.060;2023-04-25T17:41:41;5.10;;;4.40;;
43682;SDS011;29285;52.128;21.060;2023-04-25T17:46:44;6.50;;;4.50;;
43682;SDS011;29285;52.128;21.060;2023-04-25T17:51:45;6.30;;;4.50;;
43682;SDS011;29285;52.128;21.060;2023-04-25T17:56:46;6.50;;;4.60;;
43682;SDS011;29285;52.128;21.060;2023-04-25T18:01:47;4.20;;;3.80;;
43682;SDS011;29285;52.128;21.060;2023-04-25T18:06:49;4.40;;;4.00;;
43682;SDS011;29285;52.128;21.060;2023-04-25T18:11:50;6.40;;;3.50;;
43682;SDS011;29285;52.128;21.060;2023-04-25T18:16:52;5.60;;;4.10;;
43682;SDS011;29285;52.128;21.060;2023-04-25T18:21:54;5.60;;;4.10;;
43682;SDS011;29285;52.128;21.060;2023-04-25T18:26:56;5.60;;;4.30;;
43682;SDS011;29285;52.128;21.060;2023-04-25T18:32:00;6.60;;;4.30;;
43682;SDS011;29285;52.128;21.060;2023-04-25T18:37:01;6.60;;;4.60;;
43682;SDS011;29285;52.128;21.060;2023-04-25T18:42:03;5.50;;;4.90;;
43682;SDS011;29285;52.128;21.060;2023-04-25T18:47:05;8.60;;;5.90;;
43682;SDS011;29285;52.128;21.060;2023-04-25T18:52:07;6.10;;;5.10;;
43682;SDS011;29285;52.128;21.060;2023-04-25T18:57:10;6.40;;;4.60;;
43682;SDS011;29285;52.128;21.060;2023-04-25T19:02:14;6.40;;;5.00;;
43682;SDS011;29285;52.128;21.060;2023-04-25T19:07:15;6.60;;;4.70;;
43682;SDS011;29285;52.128;21.060;2023-04-25T19:12:16;8.50;;;5.60;;
43682;SDS011;29285;52.128;21.060;2023-04-25T19:17:18;7.40;;;5.40;;
43682;SDS011;29285;52.128;21.060;2023-04-25T19:22:19;7.10;;;5.50;;
43682;SDS011;29285;52.128;21.060;2023-04-25T19:27:20;9.00;;;5.70;;
43682;SDS011;29285;52.128;21.060;2023-04-25T19:32:24;7.80;;;6.00;;
43682;SDS011;29285;52.128;21.060;2023-04-25T19:37:26;9.50;;;6.10;;
43682;SDS011;29285;52.128;21.060;2023-04-25T19:42:27;7.40;;;6.10;;
43682;SDS011;29285;52.128;21.060;2023-04-25T19:47:28;6.60;;;5.30;;
43682;SDS011;29285;52.128;21.060;2023-04-25T19:52:29;6.10;;;5.20;;
43682;SDS011;29285;52.128;21.060;2023-04-25T19:57:34;8.80;;;6.10;;
43682;SDS011;29285;52.128;21.060;2023-04-25T20:02:37;8.20;;;6.20;;
43682;SDS011;29285;52.128;21.060;2023-04-25T20:07:44;8.40;;;6.50;;
43682;SDS011;29285;52.128;21.060;2023-04-25T20:12:45;8.40;;;6.50;;
43682;SDS011;29285;52.128;21.060;2023-04-25T20:17:46;8.20;;;6.30;;
43682;SDS011;29285;52.128;21.060;2023-04-25T20:22:48;9.20;;;6.90;;
43682;SDS011;29285;52.128;21.060;2023-04-25T20:27:50;9.30;;;7.30;;
43682;SDS011;29285;52.128;21.060;2023-04-25T20:32:51;7.80;;;6.90;;
43682;SDS011;29285;52.128;21.060;2023-04-25T20:37:52;9.90;;;7.40;;
43682;SDS011;29285;52.128;21.060;2023-04-25T20:42:53;7.50;;;6.70;;
43682;SDS011;29285;52.128;21.060;2023-04-25T20:47:55;7.90;;;6.70;;
43682;SDS011;29285;52.128;21.060;2023-04-25T20:52:57;8.30;;;6.90;;
43682;SDS011;29285;52.128;21.060;2023-04-25T20:57:58;9.40;;;7.30;;
43682;SDS011;29285;52.128;21.060;2023-04-25T21:02:59;7.00;;;6.30;;
43682;SDS011;29285;52.128;21.060;2023-04-25T21:08:04;8.00;;;6.30;;
43682;SDS011;29285;52.128;21.060;2023-04-25T21:13:05;8.40;;;6.10;;
43682;SDS011;29285;52.128;21.060;2023-04-25T21:18:06;6.10;;;5.50;;
43682;SDS011;29285;52.128;21.060;2023-04-25T21:23:07;6.20;;;5.60;;
43682;SDS011;29285;52.128;21.060;2023-04-25T21:28:08;9.10;;;6.30;;
43682;SDS011;29285;52.128;21.060;2023-04-25T21:33:09;9.00;;;6.60;;
43682;SDS011;29285;52.128;21.060;2023-04-25T21:38:11;7.80;;;6.30;;
43682;SDS011;29285;52.128;21.060;2023-04-25T21:43:12;9.40;;;7.10;;
43682;SDS011;29285;52.128;21.060;2023-04-25T21:48:13;10.30;;;7.90;;
43682;SDS011;29285;52.128;21.060;2023-04-25T21:53:14;9.20;;;8.20;;
43682;SDS011;29285;52.128;21.060;2023-04-25T21:58:15;11.40;;;9.50;;
43682;SDS011;29285;52.128;21.060;2023-04-25T22:03:16;10.90;;;8.30;;
43682;SDS011;29285;52.128;21.060;2023-04-25T22:08:19;9.00;;;8.00;;
43682;SDS011;29285;52.128;21.060;2023-04-25T22:13:20;9.60;;;8.50;;
43682;SDS011;29285;52.128;21.060;2023-04-25T22:18:22;9.20;;;8.10;;
43682;SDS011;29285;52.128;21.060;2023-04-25T22:23:23;9.60;;;8.60;;
43682;SDS011;29285;52.128;21.060;2023-04-25T22:28:25;8.60;;;7.70;;
43682;SDS011;29285;52.128;21.060;2023-04-25T22:33:26;10.90;;;7.80;;
43682;SDS011;29285;52.128;21.060;2023-04-25T22:38:27;8.30;;;6.20;;
43682;SDS011;29285;52.128;21.060;2023-04-25T22:43:29;6.90;;;5.20;;
43682;SDS011;29285;52.128;21.060;2023-04-25T22:48:30;8.00;;;4.70;;
43682;SDS011;29285;52.128;21.060;2023-04-25T22:53:35;5.10;;;3.80;;
43682;SDS011;29285;52.128;21.060;2023-04-25T22:58:39;5.60;;;4.30;;
43682;SDS011;29285;52.128;21.060;2023-04-25T23:03:40;5.20;;;3.70;;
43682;SDS011;29285;52.128;21.060;2023-04-25T23:08:41;4.30;;;3.40;;
43682;SDS011;29285;52.128;21.060;2023-04-25T23:13:43;8.70;;;3.40;;
43682;SDS011;29285;52.128;21.060;2023-04-25T23:18:44;4.20;;;3.10;;
43682;SDS011;29285;52.128;21.060;2023-04-25T23:23:46;4.40;;;3.00;;
43682;SDS011;29285;52.128;21.060;2023-04-25T23:28:47;6.60;;;2.90;;
43682;SDS011;29285;52.128;21.060;2023-04-25T23:33:48;4.50;;;3.20;;
43682;SDS011;29285;52.128;21.060;2023-04-25T23:38:54;5.60;;;3.30;;
43682;SDS011;29285;52.128;21.060;2023-04-25T23:43:55;4.50;;;3.00;;
43682;SDS011;29285;52.128;21.060;2023-04-25T23:48:59;7.00;;;3.50;;
43682;SDS011;29285;52.128;21.060;2023-04-25T23:59:14;4.20;;;3.40;;
